Time;durP1;ratioP1;P1;durP2;ratioP2;P2;SDS_P1;SDS_P2;PMS_P1;PMS_P2;Temp;Humidity;BMP_temperature;BMP_pressure;BME280_temperature;BME280_humidity;BME280_pressure;Samples;Min_cycle;Max_cycle;Signal;HPM_P1;HPM_P2
2021/05/04 00:00:32;;;;;;;5.00;4.20;;;9.60;99.90;;;;;;5032542;28;20025;-85
2021/05/04 00:02:58;;;;;;;4.93;4.10;;;9.60;99.90;;;;;;5030957;28;20432;-85
2021/05/04 00:05:23;;;;;;;5.05;4.55;;;9.60;99.90;;;;;;5029192;28;20505;-85
2021/05/04 00:07:49;;;;;;;5.90;4.35;;;9.70;99.90;;;;;;5030816;28;20021;-85
2021/05/04 00:10:15;;;;;;;5.32;4.80;;;9.60;99.90;;;;;;5030695;28;20079;-84
2021/05/04 00:12:40;;;;;;;5.30;4.80;;;9.50;99.90;;;;;;5032568;28;20112;-85
2021/05/04 00:15:08;;;;;;;6.10;5.28;;;9.50;99.90;;;;;;5031248;28;20026;-85
2021/05/04 00:17:34;;;;;;;4.75;4.28;;;9.50;99.90;;;;;;5025193;28;20060;-85
2021/05/04 00:19:59;;;;;;;7.07;4.60;;;9.70;99.90;;;;;;5029346;28;20497;-85
2021/05/04 00:22:25;;;;;;;5.22;4.30;;;9.70;99.90;;;;;;5030652;28;20057;-85
2021/05/04 00:24:51;;;;;;;4.38;3.83;;;9.90;99.90;;;;;;5029264;28;20029;-85
2021/05/04 00:27:16;;;;;;;4.75;4.35;;;9.90;99.90;;;;;;5032205;28;20037;-86
2021/05/04 00:29:42;;;;;;;5.90;4.57;;;10.00;99.90;;;;;;5030641;28;20068;-85
2021/05/04 00:32:07;;;;;;;4.38;3.70;;;9.90;99.90;;;;;;5029704;28;20049;-85
2021/05/04 00:34:33;;;;;;;4.43;3.67;;;9.90;99.90;;;;;;5030094;28;20041;-86
2021/05/04 00:36:58;;;;;;;4.75;3.95;;;9.90;99.90;;;;;;5030414;28;20026;-86
2021/05/04 00:39:27;;;;;;;4.10;3.70;;;9.80;99.90;;;;;;5033250;28;20025;-85
2021/05/04 00:41:53;;;;;;;6.85;4.65;;;9.60;99.90;;;;;;5029012;28;20136;-85
2021/05/04 00:44:19;;;;;;;4.55;4.15;;;9.60;99.90;;;;;;5030387;28;20096;-85
2021/05/04 00:46:45;;;;;;;4.63;4.20;;;9.50;99.90;;;;;;5030256;28;20563;-85
2021/05/04 00:49:10;;;;;;;4.90;4.40;;;9.30;99.90;;;;;;5029626;28;20025;-85
2021/05/04 00:51:37;;;;;;;6.28;4.05;;;9.20;99.90;;;;;;5032239;28;20022;-85
2021/05/04 00:54:03;;;;;;;4.28;3.85;;;9.10;99.90;;;;;;5030929;28;20116;-85
2021/05/04 00:56:30;;;;;;;4.78;4.13;;;9.20;99.90;;;;;;5029649;28;20037;-85
2021/05/04 00:58:58;;;;;;;5.05;4.00;;;9.20;99.90;;;;;;5030261;28;20017;-85
2021/05/04 01:01:25;;;;;;;5.35;3.70;;;9.10;99.90;;;;;;5029765;28;20473;-85
2021/05/04 01:03:52;;;;;;;5.20;3.85;;;9.10;99.90;;;;;;5029786;28;20025;-85
2021/05/04 01:06:17;;;;;;;4.10;3.60;;;9.30;99.90;;;;;;5030529;28;20045;-85
2021/05/04 01:08:43;;;;;;;3.90;3.50;;;8.70;99.90;;;;;;5028538;28;20017;-85
2021/05/04 01:11:08;;;;;;;5.20;3.30;;;8.90;99.90;;;;;;5030281;28;20058;-85
2021/05/04 01:13:34;;;;;;;4.95;3.67;;;9.00;99.90;;;;;;5029907;28;20025;-85
2021/05/04 01:16:00;;;;;;;5.28;3.45;;;8.90;99.90;;;;;;5031323;28;20912;-85
2021/05/04 01:18:26;;;;;;;3.50;3.20;;;9.20;99.90;;;;;;5032107;28;20025;-85
2021/05/04 01:20:52;;;;;;;3.88;3.45;;;9.40;99.90;;;;;;5030027;28;20389;-84
2021/05/04 01:23:17;;;;;;;4.22;3.50;;;9.60;99.90;;;;;;5029839;28;20040;-85
2021/05/04 01:25:43;;;;;;;4.60;3.38;;;9.60;99.90;;;;;;5031670;28;20124;-85
2021/05/04 01:28:09;;;;;;;4.25;3.25;;;9.70;99.90;;;;;;5033796;28;20030;-85
2021/05/04 01:30:35;;;;;;;3.92;3.53;;;9.70;99.90;;;;;;5035155;28;20029;-85
2021/05/04 01:33:01;;;;;;;4.43;3.72;;;9.70;99.90;;;;;;5032977;28;20114;-85
2021/05/04 01:35:27;;;;;;;5.10;3.53;;;9.80;99.90;;;;;;5031462;28;20029;-86
2021/05/04 01:37:54;;;;;;;4.50;3.28;;;9.80;99.90;;;;;;5032817;28;20022;-85
2021/05/04 01:40:20;;;;;;;3.80;3.47;;;9.90;99.90;;;;;;5033395;28;20026;-85
2021/05/04 01:42:47;;;;;;;3.40;3.10;;;9.90;99.90;;;;;;5034200;28;20041;-85
2021/05/04 01:45:13;;;;;;;3.47;3.17;;;9.80;99.90;;;;;;5033059;28;20079;-84
2021/05/04 01:47:39;;;;;;;4.00;3.53;;;9.70;99.90;;;;;;5033112;28;20044;-85
2021/05/04 01:50:06;;;;;;;3.67;3.35;;;9.80;99.90;;;;;;5033136;28;20025;-85
2021/05/04 01:52:32;;;;;;;3.90;3.50;;;9.80;99.90;;;;;;5033664;28;20124;-85
2021/05/04 01:54:59;;;;;;;4.05;3.10;;;9.90;99.90;;;;;;5032711;28;20045;-85
2021/05/04 01:57:24;;;;;;;3.45;3.15;;;9.90;99.90;;;;;;5035686;28;20063;-85
2021/05/04 01:59:50;;;;;;;3.45;3.15;;;9.90;99.90;;;;;;5031413;28;20120;-85
2021/05/04 02:02:16;;;;;;;4.10;3.35;;;9.80;99.90;;;;;;5030491;28;20050;-85
2021/05/04 02:04:41;;;;;;;3.78;3.38;;;9.70;99.90;;;;;;5032768;28;20033;-85
2021/05/04 02:07:07;;;;;;;3.88;3.20;;;9.70;99.90;;;;;;5033369;28;20575;-85
2021/05/04 02:09:32;;;;;;;3.45;3.03;;;9.70;99.90;;;;;;5034571;28;20036;-85
2021/05/04 02:11:59;;;;;;;3.78;3.20;;;9.70;99.90;;;;;;5032556;28;20112;-85
2021/05/04 02:14:25;;;;;;;5.10;3.38;;;9.80;99.90;;;;;;5030187;28;20468;-85
2021/05/04 02:16:50;;;;;;;5.32;3.10;;;9.80;99.90;;;;;;5032358;28;20113;-85
2021/05/04 02:19:16;;;;;;;3.50;3.05;;;9.80;99.90;;;;;;5032199;28;20112;-85
2021/05/04 02:21:42;;;;;;;3.97;3.08;;;9.80;99.90;;;;;;5033715;28;20559;-85
2021/05/04 02:24:07;;;;;;;5.85;3.22;;;9.90;99.90;;;;;;5033358;28;20104;-84
2021/05/04 02:26:33;;;;;;;3.50;3.20;;;9.90;99.90;;;;;;5032115;28;20033;-84
2021/05/04 02:28:58;;;;;;;5.28;3.22;;;9.90;99.90;;;;;;5032235;28;20033;-85
2021/05/04 02:31:24;;;;;;;5.45;3.22;;;10.00;99.90;;;;;;5031900;28;20028;-85
2021/05/04 02:33:50;;;;;;;3.15;2.85;;;9.90;99.90;;;;;;5032362;28;20489;-85
2021/05/04 02:36:16;;;;;;;3.38;3.08;;;9.90;99.90;;;;;;5032370;28;20061;-85
2021/05/04 02:38:41;;;;;;;4.22;3.40;;;9.90;99.90;;;;;;5032148;28;20404;-85
2021/05/04 02:41:08;;;;;;;3.30;2.75;;;9.90;99.90;;;;;;5032110;28;20160;-85
2021/05/04 02:43:34;;;;;;;4.18;3.00;;;10.00;99.90;;;;;;5032583;28;20156;-85
2021/05/04 02:46:00;;;;;;;6.68;3.08;;;10.00;99.90;;;;;;5031943;28;20029;-85
2021/05/04 02:48:26;;;;;;;4.63;2.80;;;10.00;99.90;;;;;;5034155;28;20030;-85
2021/05/04 02:50:52;;;;;;;3.40;3.10;;;10.00;99.90;;;;;;5031739;28;20066;-85
2021/05/04 02:53:18;;;;;;;3.65;3.22;;;10.00;99.90;;;;;;5032084;28;20037;-85
2021/05/04 02:55:44;;;;;;;4.55;3.08;;;10.00;99.90;;;;;;5029046;28;20385;-85
2021/05/04 02:58:09;;;;;;;3.75;2.70;;;10.00;99.90;;;;;;5032053;28;20524;-85
2021/05/04 03:00:35;;;;;;;4.70;3.00;;;10.30;99.90;;;;;;5033588;28;20029;-85
2021/05/04 03:03:01;;;;;;;6.90;3.05;;;10.00;99.90;;;;;;5031482;28;20099;-85
2021/05/04 03:05:27;;;;;;;3.40;3.10;;;10.00;99.90;;;;;;5030206;28;20448;-85
2021/05/04 03:07:52;;;;;;;4.03;2.90;;;9.90;99.90;;;;;;5031469;28;20029;-85
2021/05/04 03:10:18;;;;;;;3.42;2.80;;;9.90;99.90;;;;;;5030749;28;20025;-85
2021/05/04 03:12:44;;;;;;;3.85;2.67;;;9.90;99.90;;;;;;5032974;28;20438;-84
2021/05/04 03:15:10;;;;;;;3.67;3.13;;;10.00;99.90;;;;;;5031821;28;20064;-84
2021/05/04 03:17:36;;;;;;;2.90;2.67;;;9.90;99.90;;;;;;5031274;28;20033;-85
2021/05/04 03:20:03;;;;;;;3.13;2.80;;;10.00;99.90;;;;;;5030919;28;20041;-85
2021/05/04 03:22:29;;;;;;;3.05;2.78;;;10.00;99.90;;;;;;5032200;28;20064;-84
2021/05/04 03:24:55;;;;;;;3.28;2.97;;;9.90;99.90;;;;;;5031427;28;20060;-85
2021/05/04 03:27:20;;;;;;;3.00;2.78;;;9.90;99.90;;;;;;5032945;28;20029;-84
2021/05/04 03:29:46;;;;;;;3.13;2.80;;;9.80;99.90;;;;;;5031324;28;20029;-85
2021/05/04 03:32:11;;;;;;;3.03;2.75;;;9.80;99.90;;;;;;5029413;28;20045;-84
2021/05/04 03:34:37;;;;;;;3.10;2.63;;;9.80;99.90;;;;;;5030980;28;20052;-84
2021/05/04 03:37:02;;;;;;;4.18;3.22;;;9.70;99.90;;;;;;5031449;28;20451;-84
2021/05/04 03:39:28;;;;;;;3.50;3.00;;;9.70;99.90;;;;;;5033051;28;20034;-84
2021/05/04 03:41:54;;;;;;;4.28;3.00;;;9.70;99.90;;;;;;5030428;28;20068;-84
2021/05/04 03:44:19;;;;;;;4.40;3.25;;;9.60;99.90;;;;;;5030685;28;20033;-84
2021/05/04 03:46:45;;;;;;;3.20;2.90;;;9.60;99.90;;;;;;5030096;28;20112;-85
2021/05/04 03:49:11;;;;;;;4.82;3.30;;;9.60;99.90;;;;;;5030844;28;20018;-84
2021/05/04 03:51:37;;;;;;;4.03;3.10;;;9.60;99.90;;;;;;5032901;28;20034;-84
2021/05/04 03:54:03;;;;;;;9.73;3.30;;;9.60;99.90;;;;;;5029292;28;20030;-84
2021/05/04 03:56:29;;;;;;;3.40;3.10;;;9.60;99.90;;;;;;5030731;28;20029;-84
2021/05/04 03:58:55;;;;;;;4.13;3.25;;;9.60;99.90;;;;;;5030494;28;20127;-84
2021/05/04 04:01:20;;;;;;;4.88;3.33;;;9.50;99.90;;;;;;5030577;28;20557;-84
2021/05/04 04:03:48;;;;;;;4.95;3.70;;;9.40;99.90;;;;;;5031536;28;20117;-85
2021/05/04 04:06:14;;;;;;;6.18;3.40;;;9.40;99.90;;;;;;5032245;28;20124;-84
2021/05/04 04:08:40;;;;;;;4.68;4.10;;;9.60;99.90;;;;;;5030505;28;20444;-84
2021/05/04 04:11:05;;;;;;;3.58;3.28;;;9.40;99.90;;;;;;5029322;28;20284;-84
2021/05/04 04:13:33;;;;;;;6.70;3.08;;;9.50;99.90;;;;;;5030374;28;20033;-84
2021/05/04 04:15:59;;;;;;;3.55;3.20;;;9.60;99.90;;;;;;5030417;28;20042;-84
2021/05/04 04:18:24;;;;;;;3.00;2.70;;;9.70;99.90;;;;;;5032079;28;20037;-84
2021/05/04 04:20:50;;;;;;;3.83;3.15;;;10.00;99.90;;;;;;5030652;28;20041;-85
2021/05/04 04:23:16;;;;;;;3.00;2.67;;;10.20;99.90;;;;;;5030563;28;20029;-84
2021/05/04 04:25:42;;;;;;;3.70;3.00;;;10.40;99.90;;;;;;5030644;28;20053;-84
2021/05/04 04:28:08;;;;;;;4.53;2.92;;;10.40;99.90;;;;;;5029293;28;20402;-84
2021/05/04 04:30:33;;;;;;;3.35;2.80;;;10.30;99.90;;;;;;5032522;28;20028;-84
2021/05/04 04:32:59;;;;;;;3.88;2.80;;;10.40;99.90;;;;;;5030321;28;21604;-84
2021/05/04 04:35:24;;;;;;;5.63;2.60;;;10.50;99.90;;;;;;5026808;28;20029;-85
2021/05/04 04:37:50;;;;;;;5.07;2.80;;;10.70;99.90;;;;;;5030858;28;20079;-84
2021/05/04 04:40:16;;;;;;;3.60;3.03;;;10.60;99.90;;;;;;5030134;28;20021;-84
2021/05/04 04:42:41;;;;;;;3.80;2.72;;;10.50;99.90;;;;;;5032192;28;20040;-84
2021/05/04 04:45:08;;;;;;;5.28;2.50;;;10.60;99.90;;;;;;5030705;28;20039;-84
2021/05/04 04:47:34;;;;;;;5.82;2.60;;;10.80;99.90;;;;;;5030529;28;20025;-85
2021/05/04 04:49:59;;;;;;;5.32;2.72;;;10.80;99.90;;;;;;5030118;28;20117;-85
2021/05/04 04:52:25;;;;;;;4.13;2.60;;;10.80;99.90;;;;;;5030251;28;20085;-84
2021/05/04 04:54:52;;;;;;;3.63;2.47;;;10.80;99.90;;;;;;5030369;28;20026;-85
2021/05/04 04:57:18;;;;;;;3.05;2.53;;;10.90;99.90;;;;;;5025362;28;20029;-85
2021/05/04 04:59:43;;;;;;;4.95;2.67;;;10.90;99.90;;;;;;5031882;28;20037;-85
2021/05/04 05:02:09;;;;;;;7.43;2.72;;;10.90;99.90;;;;;;5033721;28;20521;-84
2021/05/04 05:04:34;;;;;;;5.65;2.80;;;10.90;99.90;;;;;;5032626;28;20409;-84
2021/05/04 05:07:05;;;;;;;3.88;2.42;;;10.90;99.90;;;;;;5033902;28;20033;-85
2021/05/04 05:09:34;;;;;;;2.60;2.22;;;11.00;99.90;;;;;;5035078;28;20104;-88
2021/05/04 05:12:00;;;;;;;3.63;2.30;;;11.30;99.90;;;;;;5034318;28;20067;-86
2021/05/04 05:14:25;;;;;;;5.05;2.33;;;10.90;99.90;;;;;;5033611;28;20041;-85
2021/05/04 05:16:51;;;;;;;3.60;2.30;;;11.00;99.90;;;;;;5033472;28;20033;-84
2021/05/04 05:19:16;;;;;;;3.17;2.60;;;11.20;99.90;;;;;;5033165;28;20076;-86
2021/05/04 05:21:42;;;;;;;2.83;2.15;;;11.20;99.90;;;;;;5035485;28;20076;-86
2021/05/04 05:24:08;;;;;;;3.58;2.60;;;11.30;99.90;;;;;;5033430;28;20033;-85
2021/05/04 05:26:35;;;;;;;3.45;2.63;;;11.30;99.90;;;;;;5033860;28;20126;-85
2021/05/04 05:29:02;;;;;;;4.05;2.25;;;11.40;99.90;;;;;;5032180;28;20034;-85
2021/05/04 05:31:30;;;;;;;4.20;2.53;;;11.40;99.90;;;;;;5033236;28;20413;-84
2021/05/04 05:33:56;;;;;;;3.42;2.67;;;11.80;99.90;;;;;;5033627;28;20128;-90
2021/05/04 05:36:22;;;;;;;4.07;2.70;;;12.00;99.90;;;;;;5034266;28;20480;-85
2021/05/04 05:38:47;;;;;;;4.55;2.50;;;12.00;99.90;;;;;;5031723;28;20024;-85
2021/05/04 05:41:13;;;;;;;2.30;1.90;;;11.70;99.90;;;;;;5033565;28;20044;-84
2021/05/04 05:43:39;;;;;;;3.72;2.60;;;11.80;99.90;;;;;;5033352;28;20393;-85
2021/05/04 05:46:05;;;;;;;5.03;2.40;;;11.80;99.90;;;;;;5033745;28;20057;-86
2021/05/04 05:48:30;;;;;;;4.32;2.53;;;11.90;99.90;;;;;;5034726;28;20033;-85
2021/05/04 05:50:56;;;;;;;4.85;2.70;;;12.00;99.90;;;;;;5032228;28;20037;-86
2021/05/04 05:53:22;;;;;;;4.50;2.55;;;12.00;99.90;;;;;;5032355;28;20037;-86
2021/05/04 05:55:48;;;;;;;3.28;2.40;;;12.50;99.90;;;;;;5032277;28;20045;-86
2021/05/04 05:58:14;;;;;;;4.28;2.55;;;12.30;99.90;;;;;;5032166;28;20033;-85
2021/05/04 06:00:40;;;;;;;2.60;2.40;;;12.40;99.90;;;;;;5034700;28;20509;-85
2021/05/04 06:03:06;;;;;;;3.20;2.33;;;12.50;99.90;;;;;;5032874;28;20064;-85
2021/05/04 06:05:32;;;;;;;2.85;2.55;;;12.90;99.90;;;;;;5032779;28;20029;-85
2021/05/04 06:07:59;;;;;;;4.43;2.50;;;13.00;99.90;;;;;;5030921;28;20037;-85
2021/05/04 06:10:24;;;;;;;3.15;2.70;;;13.10;99.90;;;;;;5032709;28;20107;-85
2021/05/04 06:12:58;;;;;;;3.78;2.45;;;12.70;99.90;;;;;;5033485;28;20083;-85
2021/05/04 06:15:24;;;;;;;3.42;2.10;;;13.20;99.90;;;;;;5033469;28;20021;-85
2021/05/04 06:17:50;;;;;;;4.10;2.40;;;13.20;99.90;;;;;;5033261;28;20029;-85
2021/05/04 06:20:16;;;;;;;5.00;2.40;;;12.90;99.90;;;;;;5032727;28;20026;-86
2021/05/04 06:22:41;;;;;;;2.72;2.10;;;13.00;99.90;;;;;;5031472;28;20120;-85
2021/05/04 06:25:07;;;;;;;2.40;2.20;;;13.50;99.90;;;;;;5031506;28;20111;-85
2021/05/04 06:27:33;;;;;;;2.60;2.40;;;13.20;99.90;;;;;;5033952;28;20029;-85
2021/05/04 06:29:59;;;;;;;4.60;2.30;;;13.80;99.90;;;;;;5032254;28;20029;-84
2021/05/04 06:32:26;;;;;;;2.65;2.30;;;14.00;99.90;;;;;;5030225;28;20533;-84
2021/05/04 06:34:52;;;;;;;2.38;2.17;;;13.70;99.90;;;;;;5031675;28;20028;-84
2021/05/04 06:37:17;;;;;;;2.97;2.20;;;14.00;99.90;;;;;;5031428;28;20025;-84
2021/05/04 06:39:43;;;;;;;2.35;2.15;;;13.80;99.90;;;;;;5033931;28;20062;-84
2021/05/04 06:42:10;;;;;;;3.25;2.00;;;14.10;99.90;;;;;;5032513;28;20037;-84
2021/05/04 06:44:37;;;;;;;2.28;2.08;;;13.70;99.90;;;;;;5032897;28;20096;-87
2021/05/04 06:47:03;;;;;;;2.35;2.10;;;13.80;99.90;;;;;;5032886;28;20029;-86
2021/05/04 06:49:30;;;;;;;2.60;1.90;;;13.90;99.90;;;;;;5032057;28;20033;-90
2021/05/04 06:51:55;;;;;;;4.30;1.88;;;13.80;99.90;;;;;;5031314;28;20504;-84
2021/05/04 06:54:21;;;;;;;3.55;1.95;;;13.80;99.90;;;;;;5032689;28;20025;-84
2021/05/04 06:56:47;;;;;;;2.10;2.00;;;13.80;99.90;;;;;;5031335;28;20026;-84
2021/05/04 06:59:13;;;;;;;2.72;1.98;;;13.90;99.90;;;;;;5031469;28;20034;-85
2021/05/04 07:01:39;;;;;;;3.05;2.15;;;13.90;99.90;;;;;;5030146;28;20121;-85
2021/05/04 07:04:06;;;;;;;2.20;2.00;;;14.00;99.90;;;;;;5030867;28;20810;-86
2021/05/04 07:06:32;;;;;;;2.55;2.10;;;14.00;99.90;;;;;;5033051;28;20540;-86
2021/05/04 07:08:57;;;;;;;3.53;2.22;;;14.00;99.90;;;;;;5031655;28;20121;-86
2021/05/04 07:11:23;;;;;;;5.97;2.38;;;14.10;99.90;;;;;;5030095;28;20032;-85
2021/05/04 07:13:49;;;;;;;2.40;2.15;;;14.20;99.90;;;;;;5031995;28;20028;-83
2021/05/04 07:16:14;;;;;;;3.08;2.20;;;14.40;99.90;;;;;;5031605;28;20033;-85
2021/05/04 07:18:40;;;;;;;2.55;2.03;;;14.40;99.90;;;;;;5033385;28;20020;-86
2021/05/04 07:21:09;;;;;;;2.60;2.17;;;14.60;99.90;;;;;;5031865;28;20397;-85
2021/05/04 07:23:36;;;;;;;4.40;2.08;;;14.40;99.90;;;;;;5030744;28;20075;-85
2021/05/04 07:26:02;;;;;;;2.50;2.20;;;14.60;99.90;;;;;;5029722;28;20033;-85
2021/05/04 07:28:28;;;;;;;4.28;2.00;;;14.70;99.90;;;;;;5030193;28;20022;-87
2021/05/04 07:30:54;;;;;;;2.30;2.10;;;14.30;99.90;;;;;;5027879;28;20028;-86
2021/05/04 07:33:20;;;;;;;2.55;2.35;;;14.50;99.90;;;;;;5024699;28;20041;-86
2021/05/04 07:35:50;;;;;;;2.38;2.10;;;14.50;99.90;;;;;;5029526;28;20029;-86
2021/05/04 07:38:16;;;;;;;2.17;1.98;;;14.60;99.90;;;;;;5031447;28;20450;-86
2021/05/04 07:40:42;;;;;;;2.22;2.03;;;14.50;99.90;;;;;;5031016;28;20088;-87
2021/05/04 07:43:08;;;;;;;3.92;2.45;;;15.10;99.90;;;;;;5031271;28;20038;-89
2021/05/04 07:45:34;;;;;;;2.42;1.95;;;15.10;99.90;;;;;;5033195;28;20033;-87
2021/05/04 07:48:01;;;;;;;1.60;1.48;;;14.90;99.90;;;;;;5030210;28;20017;-87
2021/05/04 07:50:28;;;;;;;2.83;2.10;;;14.70;99.90;;;;;;5029969;28;20029;-87
2021/05/04 07:52:54;;;;;;;3.75;2.53;;;14.80;99.90;;;;;;5031110;28;20512;-87
2021/05/04 07:55:20;;;;;;;3.45;2.30;;;15.00;99.90;;;;;;5029296;28;20061;-86
2021/05/04 07:57:45;;;;;;;4.60;2.35;;;14.90;99.90;;;;;;5032110;28;20048;-86
2021/05/04 08:00:11;;;;;;;3.63;2.30;;;14.90;99.90;;;;;;5030565;28;20553;-87
2021/05/04 08:02:37;;;;;;;3.03;2.20;;;14.90;99.90;;;;;;5030620;28;20034;-87
2021/05/04 08:05:03;;;;;;;3.22;2.10;;;15.50;99.90;;;;;;5028500;28;20080;-87
2021/05/04 08:07:29;;;;;;;3.05;2.20;;;15.20;99.90;;;;;;5029327;28;20037;-87
2021/05/04 08:09:55;;;;;;;4.15;2.03;;;15.30;99.90;;;;;;5030843;28;20441;-86
2021/05/04 08:12:20;;;;;;;3.15;2.20;;;15.50;99.90;;;;;;5032697;28;20075;-87
2021/05/04 08:14:46;;;;;;;2.78;2.17;;;15.60;99.90;;;;;;5029162;28;20079;-87
2021/05/04 08:17:17;;;;;;;2.20;2.00;;;15.80;99.90;;;;;;5030703;28;20037;-86
2021/05/04 08:19:43;;;;;;;3.08;2.13;;;15.80;99.90;;;;;;5030293;28;20026;-86
2021/05/04 08:22:09;;;;;;;2.75;2.15;;;15.80;99.90;;;;;;5029903;28;20038;-86
2021/05/04 08:24:35;;;;;;;4.18;2.22;;;16.00;99.90;;;;;;5032288;28;20022;-86
2021/05/04 08:27:01;;;;;;;4.03;2.20;;;16.00;99.90;;;;;;5030296;28;20032;-87
2021/05/04 08:29:26;;;;;;;3.38;2.13;;;16.40;99.90;;;;;;5030474;28;20029;-86
2021/05/04 08:31:52;;;;;;;2.30;2.05;;;16.10;99.90;;;;;;5029911;28;20034;-86
2021/05/04 08:34:21;;;;;;;3.55;2.08;;;16.60;99.90;;;;;;5018509;28;20025;-87
2021/05/04 08:36:48;;;;;;;2.58;1.90;;;16.60;99.90;;;;;;5035451;28;20026;-86
2021/05/04 08:39:13;;;;;;;3.17;2.03;;;16.70;99.90;;;;;;5034182;28;20477;-86
2021/05/04 08:41:42;;;;;;;2.58;2.03;;;16.80;99.90;;;;;;5032679;28;20034;-86
2021/05/04 08:44:14;;;;;;;2.80;1.80;;;17.10;99.90;;;;;;5032607;28;20059;-87
2021/05/04 08:46:40;;;;;;;3.25;1.92;;;17.10;99.90;;;;;;5035052;28;20026;-87
2021/05/04 08:49:06;;;;;;;2.30;2.00;;;17.10;99.90;;;;;;5034649;28;20509;-86
2021/05/04 08:51:33;;;;;;;3.58;2.20;;;17.40;99.90;;;;;;5035750;28;20033;-86
2021/05/04 08:53:58;;;;;;;2.47;1.90;;;17.50;99.90;;;;;;5033752;28;20040;-87
2021/05/04 08:56:24;;;;;;;2.15;1.95;;;17.40;99.90;;;;;;5034597;28;20030;-86
2021/05/04 08:58:50;;;;;;;2.65;2.22;;;17.60;99.90;;;;;;5033998;28;20029;-87
2021/05/04 09:01:15;;;;;;;5.78;2.13;;;17.70;99.90;;;;;;5032312;28;20027;-87
2021/05/04 09:06:15;;;;;;;3.42;2.10;;;17.50;99.90;;;;;;5034005;28;20025;-86
2021/05/04 09:08:50;;;;;;;3.13;1.90;;;17.30;99.90;;;;;;5033839;28;20037;-86
2021/05/04 09:11:16;;;;;;;2.60;2.10;;;17.40;99.90;;;;;;5034530;28;20056;-86
2021/05/04 09:14:12;;;;;;;3.28;2.20;;;17.20;99.90;;;;;;5033272;28;20477;-87
2021/05/04 09:16:51;;;;;;;2.78;2.10;;;17.60;99.90;;;;;;5033608;28;20037;-87
2021/05/04 09:21:53;;;;;;;3.25;2.15;;;18.50;99.90;;;;;;5034283;28;20554;-87
2021/05/04 09:24:30;;;;;;;2.53;2.20;;;18.10;99.90;;;;;;5033416;28;20100;-86
2021/05/04 09:27:10;;;;;;;5.15;2.40;;;18.10;99.90;;;;;;5033832;28;20033;-86
2021/05/04 09:29:40;;;;;;;2.28;2.08;;;18.40;99.90;;;;;;5033324;28;20029;-86
2021/05/04 09:32:14;;;;;;;3.63;2.45;;;18.20;99.90;;;;;;5032339;28;20399;-86
2021/05/04 09:35:03;;;;;;;3.38;2.10;;;18.10;99.90;;;;;;5033212;28;20546;-87
2021/05/04 09:37:31;;;;;;;2.33;1.98;;;18.30;99.90;;;;;;5031401;28;20397;-86
2021/05/04 09:40:21;;;;;;;3.15;2.17;;;18.90;99.90;;;;;;5032761;28;20481;-86
2021/05/04 09:42:47;;;;;;;3.42;1.88;;;18.80;99.90;;;;;;5031114;28;20064;-87
2021/05/04 09:45:23;;;;;;;2.28;1.95;;;18.40;99.90;;;;;;5030281;28;20033;-86
2021/05/04 09:48:07;;;;;;;2.90;1.85;;;18.40;99.90;;;;;;5032208;28;20033;-87
2021/05/04 09:51:16;;;;;;;2.20;1.90;;;18.90;99.90;;;;;;5029955;28;20025;-87
2021/05/04 09:56:11;;;;;;;3.58;2.15;;;19.30;99.90;;;;;;5033159;28;20041;-87
2021/05/04 09:58:45;;;;;;;3.65;2.00;;;19.30;99.90;;;;;;5032581;28;20559;-87
2021/05/04 10:01:19;;;;;;;3.13;2.00;;;19.30;99.90;;;;;;5026087;28;20040;-86
2021/05/04 10:03:48;;;;;;;2.42;2.10;;;18.90;99.90;;;;;;5034812;28;20052;-86
2021/05/04 10:06:15;;;;;;;3.55;2.17;;;19.10;99.90;;;;;;5033708;28;20034;-87
2021/05/04 10:08:42;;;;;;;3.20;2.35;;;19.00;99.90;;;;;;5032491;28;20052;-86
2021/05/04 10:11:13;;;;;;;4.63;1.95;;;19.10;99.90;;;;;;5027631;28;20033;-87
2021/05/04 10:13:41;;;;;;;2.72;1.88;;;19.20;99.90;;;;;;5032136;28;20481;-86
2021/05/04 10:16:08;;;;;;;4.25;2.15;;;19.40;99.90;;;;;;5017622;28;20076;-87
2021/05/04 10:18:34;;;;;;;2.13;1.90;;;19.60;99.90;;;;;;5030483;28;20021;-87
2021/05/04 10:21:02;;;;;;;2.55;2.00;;;19.60;99.90;;;;;;5032460;28;20074;-86
2021/05/04 10:23:29;;;;;;;2.20;1.88;;;19.60;99.90;;;;;;5032275;28;20044;-87
2021/05/04 10:26:00;;;;;;;2.90;1.92;;;19.50;99.90;;;;;;5031760;28;20040;-87
2021/05/04 10:28:37;;;;;;;2.80;1.80;;;19.60;99.90;;;;;;5032019;28;20029;-87
2021/05/04 10:31:05;;;;;;;4.47;2.10;;;20.10;99.90;;;;;;5032457;28;20033;-87
2021/05/04 10:33:35;;;;;;;2.63;1.80;;;19.90;99.90;;;;;;5033736;28;20050;-87
2021/05/04 10:36:02;;;;;;;2.17;1.65;;;20.20;99.90;;;;;;5031743;28;20127;-87
2021/05/04 10:38:47;;;;;;;2.40;1.90;;;20.00;99.90;;;;;;5032546;28;20032;-87
2021/05/04 10:41:13;;;;;;;2.63;1.90;;;20.20;99.90;;;;;;5030658;28;20044;-87
2021/05/04 10:43:41;;;;;;;2.13;1.83;;;20.60;99.90;;;;;;5029171;28;20025;-87
2021/05/04 10:46:11;;;;;;;2.30;1.77;;;20.30;99.90;;;;;;5016635;28;20109;-87
2021/05/04 10:48:37;;;;;;;3.58;2.00;;;20.10;99.90;;;;;;5029364;28;20029;-87
2021/05/04 10:51:12;;;;;;;1.73;1.63;;;20.60;99.90;;;;;;5032688;28;20033;-87
2021/05/04 10:53:53;;;;;;;2.00;1.80;;;20.80;99.90;;;;;;5031339;28;20075;-87
2021/05/04 10:56:39;;;;;;;2.03;1.83;;;20.90;99.90;;;;;;5031462;28;20036;-87
2021/05/04 10:59:07;;;;;;;2.78;1.80;;;21.40;99.90;;;;;;5030874;28;20040;-87
2021/05/04 11:01:35;;;;;;;3.58;1.92;;;21.20;99.90;;;;;;5031199;28;20483;-87
2021/05/04 11:04:01;;;;;;;2.35;1.75;;;21.20;99.90;;;;;;5032058;28;20025;-88
2021/05/04 11:06:27;;;;;;;2.15;1.83;;;21.40;99.90;;;;;;5032763;28;20032;-87
2021/05/04 11:08:52;;;;;;;2.13;1.70;;;22.40;99.90;;;;;;5032057;28;20038;-87
2021/05/04 11:11:46;;;;;;;2.00;1.73;;;23.00;99.90;;;;;;5029579;28;20084;-87
2021/05/04 11:14:14;;;;;;;2.20;1.70;;;22.00;99.90;;;;;;5032449;28;20244;-88
2021/05/04 11:17:00;;;;;;;2.78;1.88;;;22.30;99.90;;;;;;5031509;28;20108;-87
2021/05/04 11:19:29;;;;;;;3.55;2.20;;;22.60;99.90;;;;;;5029256;28;20022;-87
2021/05/04 11:21:57;;;;;;;1.98;1.75;;;22.20;99.90;;;;;;5031539;28;20497;-88
2021/05/04 11:24:29;;;;;;;2.45;2.22;;;23.30;99.90;;;;;;5032909;28;20076;-87
2021/05/04 11:27:05;;;;;;;2.80;2.47;;;24.30;99.90;;;;;;5030859;28;20065;-87
2021/05/04 11:29:34;;;;;;;3.28;2.50;;;23.40;99.90;;;;;;5031362;28;20025;-88
2021/05/04 11:32:37;;;;;;;1.90;1.80;;;25.90;99.90;;;;;;5030364;28;20052;-88
2021/05/04 11:35:05;;;;;;;3.53;2.10;;;26.60;99.90;;;;;;5030970;28;20485;-87
2021/05/04 11:37:39;;;;;;;2.33;2.00;;;26.20;99.90;;;;;;5030998;28;20026;-87
2021/05/04 11:40:24;;;;;;;2.35;2.13;;;26.30;99.90;;;;;;5030552;28;20029;-88
2021/05/04 11:43:00;;;;;;;3.90;2.08;;;28.50;99.90;;;;;;5029470;28;20071;-88
2021/05/04 11:45:33;;;;;;;2.25;2.05;;;29.30;99.90;;;;;;5031641;28;20028;-88
2021/05/04 11:48:02;;;;;;;2.33;2.13;;;28.10;99.90;;;;;;5030697;28;20501;-88
2021/05/04 11:50:29;;;;;;;3.60;2.10;;;27.60;99.90;;;;;;5030851;28;20029;-88
2021/05/04 11:53:02;;;;;;;4.40;2.20;;;27.40;99.90;;;;;;5030778;28;20362;-87
2021/05/04 11:55:39;;;;;;;3.67;1.98;;;26.70;99.90;;;;;;5030516;28;20436;-88
2021/05/04 11:58:13;;;;;;;2.92;2.00;;;26.60;99.90;;;;;;5029731;28;20029;-88
2021/05/04 12:00:38;;;;;;;4.97;2.38;;;26.10;99.90;;;;;;5028294;28;20041;-88
2021/05/04 12:03:09;;;;;;;3.45;2.00;;;25.60;99.90;;;;;;5030020;28;20103;-88
2021/05/04 12:05:36;;;;;;;2.00;1.90;;;26.50;99.90;;;;;;5030372;28;20371;-88
2021/05/04 12:08:03;;;;;;;3.17;1.92;;;26.10;99.90;;;;;;5021883;28;20040;-88
2021/05/04 12:10:37;;;;;;;2.20;1.90;;;27.70;99.90;;;;;;5029387;28;20509;-88
2021/05/04 12:13:21;;;;;;;2.70;1.85;;;27.90;99.90;;;;;;5031215;28;20116;-88
2021/05/04 12:15:48;;;;;;;2.83;2.10;;;28.20;99.90;;;;;;5028583;28;20033;-88
2021/05/04 12:18:25;;;;;;;2.85;1.92;;;27.10;99.90;;;;;;5030849;28;20033;-88
2021/05/04 12:20:53;;;;;;;2.22;1.77;;;27.20;99.90;;;;;;5030354;28;20124;-89
2021/05/04 12:23:40;;;;;;;2.55;2.08;;;27.70;99.90;;;;;;5030247;28;20026;-88
2021/05/04 12:26:09;;;;;;;1.92;1.83;;;28.60;99.90;;;;;;5029875;28;20052;-88
2021/05/04 12:28:46;;;;;;;2.30;1.90;;;27.70;99.90;;;;;;5031975;28;20488;-88
2021/05/04 12:31:16;;;;;;;3.42;1.73;;;27.40;99.90;;;;;;5019881;28;20040;-88
2021/05/04 12:33:46;;;;;;;3.35;1.88;;;27.50;99.90;;;;;;5031149;28;20436;-89
2021/05/04 12:36:16;;;;;;;2.05;1.70;;;27.70;99.90;;;;;;5031223;28;20030;-89
2021/05/04 12:41:17;;;;;;;1.88;1.70;;;27.50;99.90;;;;;;5029923;28;20397;-88
2021/05/04 12:44:21;;;;;;;2.00;1.70;;;27.80;99.90;;;;;;5030386;28;20083;-88
2021/05/04 12:46:55;;;;;;;4.72;2.00;;;28.70;99.90;;;;;;5030152;28;20057;-88
2021/05/04 12:49:32;;;;;;;2.20;1.98;;;29.10;99.90;;;;;;5031247;28;20029;-88
2021/05/04 12:51:58;;;;;;;3.15;1.88;;;28.80;99.90;;;;;;5030445;28;20031;-88
2021/05/04 12:54:23;;;;;;;2.28;2.08;;;29.30;99.90;;;;;;5030122;28;20029;-88
2021/05/04 12:56:51;;;;;;;2.47;1.90;;;28.50;99.90;;;;;;5030679;28;20037;-88
2021/05/04 12:59:29;;;;;;;3.03;2.00;;;28.10;99.90;;;;;;5030988;28;20034;-88
2021/05/04 13:01:56;;;;;;;2.55;1.90;;;28.00;99.90;;;;;;5027791;28;20029;-88
2021/05/04 13:04:48;;;;;;;1.88;1.77;;;26.50;99.90;;;;;;5027568;28;20050;-88